x

Ilm3 - 27 Miles Se Of Wrightsville Beach, Nc (41037) Weather Station

10:08 - Sat 30th Jul 2016 All times are EDT. -4 hours from GMT.

  • Wind
    9mph, 11mph gusts
  • Sea Temp 84°f
  • Aire Temp 85°f
  • Sea Pressure 1015.9mb
  • Ilm3 - 27 Miles Se Of Wrightsville Beach, Nc
  • Ilm3 - 27 Miles Se Of Wrightsville Beach, Nc

More Historic Weather Station data

Upgrade to MSW Pro to gain access to the past 30 days of data for over 8000 Wavebouys and Weather Stations around the globe.

Join Pro

Comparision Forecast

View Surf forecast
   
sáb 07/30 10:08 9 11 mph 1015.9mb 84f 85f
9:08 9 13 mph 1015.6mb 84f 85f
8:08 11 16 mph 1016.6mb 84f 84f
7:08 13 18 mph 1014.7mb 84f 84f
6:08 16 20 mph 1014.1mb 84f 84f
5:08 13 20 mph 1013.5mb 84f 84f
4:08 13 18 mph 1013.2mb 84f 84f
3:08 13 18 mph 1013.8mb 84f 84f
2:08 13 18 mph 1014.2mb 84f 85f
1:08 13 18 mph 1014.4mb 84f 85f
12:08 11 18 mph 1014.8mb 84f 85f
vie 07/29 11:08 13 18 mph 1015mb 84f 85f
10:08 16 20 mph 1014.6mb 84f 85f
9:08 18 22 mph 1013.5mb 84f 85f
8:08 18 22 mph 1013.1mb 84f 85f
7:08 18 25 mph 1013mb 84f 85f
6:08 18 25 mph 1012.7mb 84f 86f
5:08 20 25 mph 1012.6mb 84f 86f
4:08 20 25 mph 1012.6mb 84f 85f
3:08 20 27 mph 1012.9mb 84f 85f
2:08 20 29 mph 1012.9mb 84f 85f
1:08 18 22 mph 1013.1mb 84f 85f
12:08 16 22 mph 1013.5mb 84f 85f
11:08 18 22 mph 1013.7mb 84f 85f
10:08 18 22 mph 1013.8mb 84f 85f
9:08 18 22 mph 1013.9mb 84f 85f
8:08 16 22 mph 1013.7mb 84f 85f
7:08 18 22 mph 1014.3mb 84f 84f
6:08 20 27 mph 1012.9mb 84f 84f
5:08 20 27 mph 1012.7mb 84f 84f
4:08 20 29 mph 1012.8mb 84f 85f
3:08 20 27 mph 1013mb 84f 85f
2:08 20 27 mph 1013.3mb 84f 85f
1:08 20 27 mph 1013.1mb 84f 85f
12:08 20 27 mph 1013.4mb 84f 85f
jue 07/28 11:08 20 27 mph 1013.7mb 84f 85f
10:08 20 27 mph 1013.5mb 85f 85f
9:08 20 27 mph 1012.8mb 85f 85f
8:08 20 27 mph 1012.6mb 85f 85f
7:08 18 25 mph 1012.6mb 85f 86f
6:08 18 25 mph 1012.6mb 85f 86f
5:08 18 25 mph 1012.7mb 85f 86f
4:08 18 25 mph 1012.9mb 85f 86f
3:08 16 20 mph 1013.3mb 85f 86f
2:08 13 20 mph 1014.2mb 85f 86f
1:08 13 18 mph 1014.7mb 85f 85f
12:08 11 16 mph 1014.9mb 85f 85f
11:08 9 13 mph 1015.1mb 85f 85f
10:08 11 16 mph 1015.1mb 84f 85f
9:08 13 16 mph 1015.3mb 84f 85f
8:08 13 18 mph 1014.8mb 84f 85f
7:08 16 22 mph 1014.4mb 84f 84f
6:08 18 22 mph 1014.2mb 84f 84f
5:08 18 25 mph 1013.9mb 84f 84f
4:08 20 27 mph 1013.8mb 84f 84f
3:08 18 22 mph 1014mb 84f 84f
2:08 16 22 mph 1014.2mb 84f 84f
1:08 16 20 mph 1014.6mb 84f 84f
12:08 13 18 mph 1015.1mb 84f 84f
mié 07/27 11:08 13 18 mph 1015.2mb 84f 84f
10:08 13 20 mph 1015.2mb 84f 84f
9:08 16 20 mph 1014.5mb 84f 85f
8:08 18 22 mph 1013.8mb 84f 85f
7:08 20 25 mph 1013.9mb 84f 85f
6:08 18 25 mph 1014mb 84f 85f
5:08 20 27 mph 1014mb 84f 85f
4:08 18 22 mph 1014.4mb 84f 85f
3:08 18 20 mph 1014.9mb 84f 85f
2:08 16 20 mph 1015.4mb 84f 85f
1:08 16 20 mph 1015.9mb 84f 85f
12:08 13 18 mph 1016.2mb 84f 84f
11:08 13 18 mph 1016.2mb 84f 84f
10:08 13 18 mph 1016mb 84f 84f
9:08 16 20 mph 1016.3mb 84f 84f
8:08 16 22 mph 1015.8mb 84f 84f
7:08 18 22 mph 1015.8mb 84f 84f
6:08 18 22 mph 1015.8mb 84f 84f
5:08 20 25 mph 1015.5mb 84f 84f
4:08 18 25 mph 1015.4mb 84f 84f
3:08 18 22 mph 1015.7mb 84f 84f
2:08 16 22 mph 1015.8mb 84f 84f
1:08 16 20 mph 1016mb 84f 84f
12:08 16 20 mph 1016.3mb 84f 84f
mar 07/26 11:08 18 22 mph 1016.1mb 84f 84f
10:08 16 20 mph 1016mb 84f 84f
9:08 16 20 mph 1015.8mb 84f 84f
8:08 18 22 mph 1015.8mb 84f 84f
7:08 16 20 mph 1015.3mb 84f 85f
6:08 18 25 mph 1015mb 84f 85f
5:08 20 25 mph 1014.9mb 84f 85f
4:08 18 22 mph 1015.7mb 84f 85f